sensor_id;sensor_type;location;lat;lon;timestamp;pressure;altitude;pressure_sealevel;temperature;humidity
21826;BME280;11075;47.944;11.776;2023-04-21T00:02:25;94337.47;;;3.08;40.68
21826;BME280;11075;47.944;11.776;2023-04-21T00:04:53;94364.56;;;4.63;37.77
21826;BME280;11075;47.944;11.776;2023-04-21T00:07:22;94337.81;;;3.43;39.92
21826;BME280;11075;47.944;11.776;2023-04-21T00:09:48;94319.50;;;0.92;44.43
21826;BME280;11075;47.944;11.776;2023-04-21T00:12:15;94333.16;;;2.71;41.07
21826;BME280;11075;47.944;11.776;2023-04-21T00:14:42;94334.88;;;2.35;42.18
21826;BME280;11075;47.944;11.776;2023-04-21T00:17:09;94336.13;;;1.59;43.95
21826;BME280;11075;47.944;11.776;2023-04-21T00:19:36;94336.19;;;2.05;43.24
21826;BME280;11075;47.944;11.776;2023-04-21T00:22:03;94349.88;;;3.63;40.10
21826;BME280;11075;47.944;11.776;2023-04-21T00:24:33;94331.22;;;1.09;44.44
21826;BME280;11075;47.944;11.776;2023-04-21T00:27:00;94327.25;;;1.82;42.73
21826;BME280;11075;47.944;11.776;2023-04-21T00:29:29;94340.19;;;1.32;44.26
21826;BME280;11075;47.944;11.776;2023-04-21T00:31:56;94355.50;;;3.61;39.50
21826;BME280;11075;47.944;11.776;2023-04-21T00:34:23;94321.81;;;2.06;41.91
21826;BME280;11075;47.944;11.776;2023-04-21T00:36:50;94349.38;;;3.74;39.22
21826;BME280;11075;47.944;11.776;2023-04-21T00:39:17;94357.25;;;4.02;38.49
21826;BME280;11075;47.944;11.776;2023-04-21T00:41:45;94344.34;;;3.73;38.87
21826;BME280;11075;47.944;11.776;2023-04-21T00:44:12;94353.75;;;4.46;37.57
21826;BME280;11075;47.944;11.776;2023-04-21T00:46:39;94328.66;;;4.16;38.16
21826;BME280;11075;47.944;11.776;2023-04-21T00:49:06;94301.28;;;3.80;38.83
21826;BME280;11075;47.944;11.776;2023-04-21T00:51:35;94318.78;;;4.48;37.73
21826;BME280;11075;47.944;11.776;2023-04-21T00:54:06;94297.06;;;3.79;38.60
21826;BME280;11075;47.944;11.776;2023-04-21T00:56:35;94322.03;;;4.67;37.27
21826;BME280;11075;47.944;11.776;2023-04-21T00:59:02;94275.00;;;2.24;41.73
21826;BME280;11075;47.944;11.776;2023-04-21T01:01:30;94320.22;;;1.91;42.37
21826;BME280;11075;47.944;11.776;2023-04-21T01:03:59;94336.13;;;2.70;41.22
21826;BME280;11075;47.944;11.776;2023-04-21T01:06:32;94310.38;;;3.06;39.98
21826;BME280;11075;47.944;11.776;2023-04-21T01:09:02;94292.63;;;2.33;41.92
21826;BME280;11075;47.944;11.776;2023-04-21T01:11:30;94302.69;;;2.50;41.02
21826;BME280;11075;47.944;11.776;2023-04-21T01:13:58;94312.41;;;3.23;40.00
21826;BME280;11075;47.944;11.776;2023-04-21T01:16:26;94318.03;;;3.58;39.37
21826;BME280;11075;47.944;11.776;2023-04-21T01:18:52;94325.28;;;3.80;38.96
21826;BME280;11075;47.944;11.776;2023-04-21T01:21:19;94323.31;;;4.47;37.61
21826;BME280;11075;47.944;11.776;2023-04-21T01:23:47;94337.25;;;4.66;37.18
21826;BME280;11075;47.944;11.776;2023-04-21T01:26:20;94309.84;;;4.21;37.70
21826;BME280;11075;47.944;11.776;2023-04-21T01:28:48;94272.63;;;2.50;41.16
21826;BME280;11075;47.944;11.776;2023-04-21T01:31:16;94315.72;;;2.93;40.60
21826;BME280;11075;47.944;11.776;2023-04-21T01:33:43;94334.28;;;4.15;38.41
21826;BME280;11075;47.944;11.776;2023-04-21T01:36:10;94315.66;;;3.70;38.70
21826;BME280;11075;47.944;11.776;2023-04-21T01:38:41;94313.72;;;3.48;38.82
21826;BME280;11075;47.944;11.776;2023-04-21T01:41:08;94306.09;;;1.02;44.36
21826;BME280;11075;47.944;11.776;2023-04-21T01:43:36;94329.19;;;3.10;39.98
21826;BME280;11075;47.944;11.776;2023-04-21T01:46:04;94333.41;;;3.25;39.73
21826;BME280;11075;47.944;11.776;2023-04-21T01:48:31;94320.31;;;2.46;41.50
21826;BME280;11075;47.944;11.776;2023-04-21T01:50:58;94329.56;;;3.17;40.19
21826;BME280;11075;47.944;11.776;2023-04-21T01:53:25;94308.69;;;2.42;40.91
21826;BME280;11075;47.944;11.776;2023-04-21T01:55:52;94322.06;;;2.37;41.95
21826;BME280;11075;47.944;11.776;2023-04-21T01:58:20;94331.97;;;4.22;37.88
21826;BME280;11075;47.944;11.776;2023-04-21T02:00:47;94328.41;;;4.04;38.26
21826;BME280;11075;47.944;11.776;2023-04-21T02:03:15;94318.41;;;3.65;38.61
21826;BME280;11075;47.944;11.776;2023-04-21T02:05:44;94313.63;;;3.03;40.17
21826;BME280;11075;47.944;11.776;2023-04-21T02:08:11;94321.84;;;3.29;39.70
21826;BME280;11075;47.944;11.776;2023-04-21T02:10:39;94330.31;;;3.45;39.30
21826;BME280;11075;47.944;11.776;2023-04-21T02:13:10;94301.81;;;2.82;40.65
21826;BME280;11075;47.944;11.776;2023-04-21T02:15:37;94336.66;;;4.16;38.31
21826;BME280;11075;47.944;11.776;2023-04-21T02:18:04;94292.16;;;2.72;40.37
21826;BME280;11075;47.944;11.776;2023-04-21T02:20:32;94304.44;;;3.46;39.20
21826;BME280;11075;47.944;11.776;2023-04-21T02:22:59;94315.59;;;3.84;38.77
21826;BME280;11075;47.944;11.776;2023-04-21T02:25:26;94302.41;;;2.79;40.21
21826;BME280;11075;47.944;11.776;2023-04-21T02:27:53;94293.56;;;1.96;41.65
21826;BME280;11075;47.944;11.776;2023-04-21T02:30:20;94299.91;;;0.45;45.22
21826;BME280;11075;47.944;11.776;2023-04-21T02:32:47;94321.75;;;0.32;45.56
21826;BME280;11075;47.944;11.776;2023-04-21T02:35:14;94321.63;;;3.39;39.57
21826;BME280;11075;47.944;11.776;2023-04-21T02:37:41;94307.16;;;3.68;39.03
21826;BME280;11075;47.944;11.776;2023-04-21T02:40:08;94317.63;;;4.09;37.93
21826;BME280;11075;47.944;11.776;2023-04-21T02:42:35;94291.81;;;1.73;42.45
21826;BME280;11075;47.944;11.776;2023-04-21T02:45:02;94317.84;;;2.36;41.90
21826;BME280;11075;47.944;11.776;2023-04-21T02:47:29;94318.94;;;3.53;39.24
21826;BME280;11075;47.944;11.776;2023-04-21T02:49:56;94287.03;;;2.48;41.13
21826;BME280;11075;47.944;11.776;2023-04-21T02:52:22;94283.69;;;1.83;42.20
21826;BME280;11075;47.944;11.776;2023-04-21T02:54:50;94307.28;;;0.72;44.86
21826;BME280;11075;47.944;11.776;2023-04-21T02:57:17;94311.75;;;3.04;40.42
21826;BME280;11075;47.944;11.776;2023-04-21T02:59:44;94300.72;;;1.44;43.02
21826;BME280;11075;47.944;11.776;2023-04-21T03:02:11;94320.19;;;3.20;39.94
21826;BME280;11075;47.944;11.776;2023-04-21T03:04:38;94316.97;;;2.54;41.23
21826;BME280;11075;47.944;11.776;2023-04-21T03:07:10;94324.78;;;3.78;39.07
21826;BME280;11075;47.944;11.776;2023-04-21T03:09:38;94301.41;;;2.47;41.43
21826;BME280;11075;47.944;11.776;2023-04-21T03:12:05;94291.03;;;2.19;41.78
21826;BME280;11075;47.944;11.776;2023-04-21T03:14:35;94309.91;;;1.71;42.94
21826;BME280;11075;47.944;11.776;2023-04-21T03:17:02;94321.94;;;3.38;40.00
21826;BME280;11075;47.944;11.776;2023-04-21T03:19:30;94320.56;;;3.63;39.43
21826;BME280;11075;47.944;11.776;2023-04-21T03:21:56;94313.00;;;4.23;38.14
21826;BME280;11075;47.944;11.776;2023-04-21T03:24:23;94307.84;;;4.27;38.07
21826;BME280;11075;47.944;11.776;2023-04-21T03:26:50;94284.84;;;2.92;40.79
21826;BME280;11075;47.944;11.776;2023-04-21T03:29:17;94309.59;;;4.31;37.90
21826;BME280;11075;47.944;11.776;2023-04-21T03:31:44;94279.91;;;3.71;38.99
21826;BME280;11075;47.944;11.776;2023-04-21T03:34:11;94273.03;;;2.84;40.79
21826;BME280;11075;47.944;11.776;2023-04-21T03:36:38;94288.88;;;1.74;43.31
21826;BME280;11075;47.944;11.776;2023-04-21T03:39:05;94319.06;;;0.84;45.66
21826;BME280;11075;47.944;11.776;2023-04-21T03:41:46;94310.66;;;0.53;46.17
21826;BME280;11075;47.944;11.776;2023-04-21T03:44:13;94318.53;;;1.25;44.97
21826;BME280;11075;47.944;11.776;2023-04-21T03:46:40;94305.94;;;2.47;42.21
21826;BME280;11075;47.944;11.776;2023-04-21T03:49:07;94312.44;;;3.82;39.20
21826;BME280;11075;47.944;11.776;2023-04-21T03:51:34;94298.28;;;3.36;39.97
21826;BME280;11075;47.944;11.776;2023-04-21T03:54:01;94298.94;;;1.91;42.55
21826;BME280;11075;47.944;11.776;2023-04-21T03:56:29;94300.75;;;0.11;46.51
21826;BME280;11075;47.944;11.776;2023-04-21T03:58:55;94298.38;;;1.94;42.80
21826;BME280;11075;47.944;11.776;2023-04-21T04:01:22;94303.59;;;3.36;40.22
21826;BME280;11075;47.944;11.776;2023-04-21T04:03:49;94287.88;;;3.13;40.40
21826;BME280;11075;47.944;11.776;2023-04-21T04:06:16;94291.47;;;3.89;38.62
21826;BME280;11075;47.944;11.776;2023-04-21T04:08:43;94279.97;;;3.80;38.77
21826;BME280;11075;47.944;11.776;2023-04-21T04:11:10;94263.50;;;1.31;43.33
21826;BME280;11075;47.944;11.776;2023-04-21T04:13:37;94284.38;;;2.48;41.74
21826;BME280;11075;47.944;11.776;2023-04-21T04:16:04;94266.44;;;2.40;41.63
21826;BME280;11075;47.944;11.776;2023-04-21T04:18:31;94279.03;;;2.90;40.84
21826;BME280;11075;47.944;11.776;2023-04-21T04:21:04;94273.22;;;2.33;41.95
21826;BME280;11075;47.944;11.776;2023-04-21T04:23:32;94267.53;;;2.81;40.87
21826;BME280;11075;47.944;11.776;2023-04-21T04:25:59;94276.94;;;3.14;40.37
21826;BME280;11075;47.944;11.776;2023-04-21T04:28:27;94286.81;;;3.94;39.03
21826;BME280;11075;47.944;11.776;2023-04-21T04:30:54;94266.88;;;3.11;40.62
21826;BME280;11075;47.944;11.776;2023-04-21T04:33:21;94266.91;;;2.29;42.59
21826;BME280;11075;47.944;11.776;2023-04-21T04:35:48;94273.53;;;1.85;44.16
21826;BME280;11075;47.944;11.776;2023-04-21T04:38:14;94269.19;;;1.75;44.64
21826;BME280;11075;47.944;11.776;2023-04-21T04:40:41;94272.06;;;1.79;44.65
21826;BME280;11075;47.944;11.776;2023-04-21T04:43:09;94284.44;;;2.30;43.75
21826;BME280;11075;47.944;11.776;2023-04-21T04:45:38;94283.38;;;3.35;41.47
21826;BME280;11075;47.944;11.776;2023-04-21T04:48:05;94293.69;;;4.18;39.91
21826;BME280;11075;47.944;11.776;2023-04-21T04:50:33;94295.66;;;1.80;44.27
21826;BME280;11075;47.944;11.776;2023-04-21T04:52:59;94295.81;;;2.76;42.45
21826;BME280;11075;47.944;11.776;2023-04-21T04:55:26;94309.03;;;3.67;40.80
21826;BME280;11075;47.944;11.776;2023-04-21T04:57:53;94309.66;;;3.87;39.95
21826;BME280;11075;47.944;11.776;2023-04-21T05:00:20;94300.94;;;3.72;40.20
21826;BME280;11075;47.944;11.776;2023-04-21T05:02:48;94305.16;;;3.37;41.10
21826;BME280;11075;47.944;11.776;2023-04-21T05:05:15;94316.19;;;3.81;40.63
21826;BME280;11075;47.944;11.776;2023-04-21T05:07:42;94313.72;;;1.97;44.07
21826;BME280;11075;47.944;11.776;2023-04-21T05:10:08;94312.31;;;2.32;43.64
21826;BME280;11075;47.944;11.776;2023-04-21T05:12:36;94312.66;;;2.86;42.91
21826;BME280;11075;47.944;11.776;2023-04-21T05:15:04;94314.47;;;3.26;42.32
21826;BME280;11075;47.944;11.776;2023-04-21T05:17:32;94337.03;;;4.94;39.75
21826;BME280;11075;47.944;11.776;2023-04-21T05:19:59;94330.25;;;5.53;37.87
21826;BME280;11075;47.944;11.776;2023-04-21T05:22:26;94300.94;;;4.26;40.49
21826;BME280;11075;47.944;11.776;2023-04-21T05:24:53;94318.81;;;4.56;39.82
21826;BME280;11075;47.944;11.776;2023-04-21T05:27:20;94309.38;;;4.19;40.28
21826;BME280;11075;47.944;11.776;2023-04-21T05:29:47;94334.81;;;5.61;38.31
21826;BME280;11075;47.944;11.776;2023-04-21T05:32:13;94321.34;;;5.01;38.59
21826;BME280;11075;47.944;11.776;2023-04-21T05:34:41;94309.47;;;4.05;40.26
21826;BME280;11075;47.944;11.776;2023-04-21T05:37:09;94331.47;;;3.53;41.96
21826;BME280;11075;47.944;11.776;2023-04-21T05:39:37;94333.22;;;4.47;39.96
21826;BME280;11075;47.944;11.776;2023-04-21T05:42:04;94320.66;;;3.71;40.57
21826;BME280;11075;47.944;11.776;2023-04-21T05:44:31;94339.44;;;4.64;39.39
21826;BME280;11075;47.944;11.776;2023-04-21T05:46:57;94351.34;;;5.72;37.01
21826;BME280;11075;47.944;11.776;2023-04-21T05:49:24;94321.72;;;4.68;39.55
21826;BME280;11075;47.944;11.776;2023-04-21T05:51:51;94332.34;;;4.06;41.53
21826;BME280;11075;47.944;11.776;2023-04-21T05:54:18;94317.97;;;4.69;40.45
21826;BME280;11075;47.944;11.776;2023-04-21T05:56:45;94339.38;;;5.61;38.40
21826;BME280;11075;47.944;11.776;2023-04-21T05:59:13;94330.69;;;6.24;37.04
21826;BME280;11075;47.944;11.776;2023-04-21T06:01:41;94322.22;;;5.45;37.87
21826;BME280;11075;47.944;11.776;2023-04-21T06:04:08;94303.22;;;4.41;41.23
21826;BME280;11075;47.944;11.776;2023-04-21T06:06:35;94311.00;;;5.08;39.62
21826;BME280;11075;47.944;11.776;2023-04-21T06:09:02;94305.63;;;4.91;39.11
21826;BME280;11075;47.944;11.776;2023-04-21T06:11:29;94300.63;;;3.02;42.84
21826;BME280;11075;47.944;11.776;2023-04-21T06:13:56;94301.41;;;3.02;43.27
21826;BME280;11075;47.944;11.776;2023-04-21T06:16:25;94323.72;;;5.02;39.83
21826;BME280;11075;47.944;11.776;2023-04-21T06:18:52;94314.28;;;6.52;37.71
21826;BME280;11075;47.944;11.776;2023-04-21T06:21:20;94317.59;;;6.87;37.44
21826;BME280;11075;47.944;11.776;2023-04-21T06:23:47;94339.38;;;8.40;34.89
21826;BME280;11075;47.944;11.776;2023-04-21T06:26:14;94259.91;;;3.37;40.63
21826;BME280;11075;47.944;11.776;2023-04-21T06:28:41;94295.59;;;3.95;41.57
21826;BME280;11075;47.944;11.776;2023-04-21T06:31:08;94325.84;;;5.92;38.31
21826;BME280;11075;47.944;11.776;2023-04-21T06:33:40;94314.84;;;5.93;37.29
21826;BME280;11075;47.944;11.776;2023-04-21T06:36:07;94287.13;;;5.12;39.51
21826;BME280;11075;47.944;11.776;2023-04-21T06:38:34;94296.91;;;3.25;43.67
21826;BME280;11075;47.944;11.776;2023-04-21T06:41:01;94320.94;;;6.11;39.05
21826;BME280;11075;47.944;11.776;2023-04-21T06:43:30;94287.56;;;4.88;40.33
21826;BME280;11075;47.944;11.776;2023-04-21T06:45:57;94284.78;;;6.05;38.63
21826;BME280;11075;47.944;11.776;2023-04-21T06:48:23;94277.91;;;5.70;38.25
21826;BME280;11075;47.944;11.776;2023-04-21T06:50:51;94291.50;;;6.20;38.19
21826;BME280;11075;47.944;11.776;2023-04-21T06:53:17;94321.03;;;6.58;37.32
21826;BME280;11075;47.944;11.776;2023-04-21T06:55:44;94264.50;;;4.52;40.52
21826;BME280;11075;47.944;11.776;2023-04-21T06:58:12;94310.13;;;7.31;36.13
21826;BME280;11075;47.944;11.776;2023-04-21T07:00:39;94296.34;;;6.82;37.32
21826;BME280;11075;47.944;11.776;2023-04-21T07:03:06;94290.53;;;6.33;37.69
21826;BME280;11075;47.944;11.776;2023-04-21T07:05:33;94296.47;;;5.57;38.96
21826;BME280;11075;47.944;11.776;2023-04-21T07:08:00;94322.63;;;6.88;36.65
21826;BME280;11075;47.944;11.776;2023-04-21T07:10:27;94326.06;;;8.43;34.26
21826;BME280;11075;47.944;11.776;2023-04-21T07:12:54;94323.72;;;8.99;33.94
21826;BME280;11075;47.944;11.776;2023-04-21T07:15:21;94283.00;;;7.32;35.36
21826;BME280;11075;47.944;11.776;2023-04-21T07:17:48;94296.78;;;6.92;36.29
21826;BME280;11075;47.944;11.776;2023-04-21T07:20:15;94299.78;;;8.04;34.90
21826;BME280;11075;47.944;11.776;2023-04-21T07:22:44;94279.03;;;7.09;36.42
21826;BME280;11075;47.944;11.776;2023-04-21T07:25:11;94301.16;;;7.26;36.16
21826;BME280;11075;47.944;11.776;2023-04-21T07:27:38;94266.56;;;5.90;38.43
21826;BME280;11075;47.944;11.776;2023-04-21T07:30:05;94293.69;;;7.95;35.93
21826;BME280;11075;47.944;11.776;2023-04-21T07:32:33;94302.81;;;7.10;34.89
21826;BME280;11075;47.944;11.776;2023-04-21T07:35:00;94278.41;;;6.36;37.23
21826;BME280;11075;47.944;11.776;2023-04-21T07:37:28;94289.09;;;7.12;36.72
21826;BME280;11075;47.944;11.776;2023-04-21T07:39:55;94337.94;;;9.00;34.13
21826;BME280;11075;47.944;11.776;2023-04-21T07:42:22;94311.00;;;8.63;34.64
21826;BME280;11075;47.944;11.776;2023-04-21T07:44:49;94277.41;;;5.93;37.84
21826;BME280;11075;47.944;11.776;2023-04-21T07:47:16;94292.88;;;6.81;37.61
21826;BME280;11075;47.944;11.776;2023-04-21T07:49:44;94288.22;;;7.28;37.25
21826;BME280;11075;47.944;11.776;2023-04-21T07:52:11;94294.78;;;6.43;37.46
21826;BME280;11075;47.944;11.776;2023-04-21T07:54:38;94316.66;;;7.83;35.64
21826;BME280;11075;47.944;11.776;2023-04-21T07:57:05;94300.91;;;7.61;35.67
21826;BME280;11075;47.944;11.776;2023-04-21T07:59:32;94313.47;;;8.11;35.20
21826;BME280;11075;47.944;11.776;2023-04-21T08:01:59;94322.31;;;8.69;34.58
21826;BME280;11075;47.944;11.776;2023-04-21T08:04:26;94336.25;;;9.32;32.96
21826;BME280;11075;47.944;11.776;2023-04-21T08:06:53;94338.88;;;10.08;32.55
21826;BME280;11075;47.944;11.776;2023-04-21T08:09:21;94315.66;;;8.99;33.75
21826;BME280;11075;47.944;11.776;2023-04-21T08:11:49;94352.91;;;11.01;30.90
21826;BME280;11075;47.944;11.776;2023-04-21T08:14:15;94333.66;;;10.87;31.46
21826;BME280;11075;47.944;11.776;2023-04-21T08:16:43;94328.88;;;11.63;31.46
21826;BME280;11075;47.944;11.776;2023-04-21T08:19:10;94323.00;;;11.06;31.93
21826;BME280;11075;47.944;11.776;2023-04-21T08:21:38;94322.50;;;10.41;31.96
21826;BME280;11075;47.944;11.776;2023-04-21T08:24:05;94313.28;;;10.42;32.76
21826;BME280;11075;47.944;11.776;2023-04-21T08:26:33;94327.78;;;10.10;31.63
21826;BME280;11075;47.944;11.776;2023-04-21T08:29:00;94261.91;;;9.92;36.10
21826;BME280;11075;47.944;11.776;2023-04-21T08:31:30;94286.88;;;9.12;34.42
21826;BME280;11075;47.944;11.776;2023-04-21T08:33:57;94325.22;;;9.73;32.89
21826;BME280;11075;47.944;11.776;2023-04-21T08:36:28;94326.97;;;11.28;31.58
21826;BME280;11075;47.944;11.776;2023-04-21T08:38:56;94306.69;;;10.56;33.11
21826;BME280;11075;47.944;11.776;2023-04-21T08:41:24;94347.31;;;12.73;29.56
21826;BME280;11075;47.944;11.776;2023-04-21T08:43:51;94327.56;;;10.74;30.76
21826;BME280;11075;47.944;11.776;2023-04-21T08:46:19;94348.03;;;11.23;30.57
21826;BME280;11075;47.944;11.776;2023-04-21T08:48:47;94350.47;;;12.98;29.44
21826;BME280;11075;47.944;11.776;2023-04-21T08:51:20;94339.66;;;13.47;29.22
21826;BME280;11075;47.944;11.776;2023-04-21T08:53:48;94288.78;;;10.47;32.05
21826;BME280;11075;47.944;11.776;2023-04-21T08:56:15;94333.63;;;12.85;29.60
21826;BME280;11075;47.944;11.776;2023-04-21T08:58:42;94266.28;;;10.87;33.23
21826;BME280;11075;47.944;11.776;2023-04-21T09:01:09;94331.03;;;13.64;29.03
21826;BME280;11075;47.944;11.776;2023-04-21T09:03:37;94303.88;;;12.01;31.60
21826;BME280;11075;47.944;11.776;2023-04-21T09:06:06;94301.31;;;12.08;31.02
21826;BME280;11075;47.944;11.776;2023-04-21T09:08:43;94324.84;;;13.64;29.59
21826;BME280;11075;47.944;11.776;2023-04-21T09:11:18;94269.72;;;11.70;33.20
21826;BME280;11075;47.944;11.776;2023-04-21T09:13:45;94284.63;;;11.13;32.70
21826;BME280;11075;47.944;11.776;2023-04-21T09:16:19;94296.13;;;13.07;30.90
21826;BME280;11075;47.944;11.776;2023-04-21T09:18:49;94271.53;;;11.66;33.17
21826;BME280;11075;47.944;11.776;2023-04-21T09:21:18;94324.56;;;13.46;29.67
21826;BME280;11075;47.944;11.776;2023-04-21T09:23:49;94316.28;;;13.35;30.18
21826;BME280;11075;47.944;11.776;2023-04-21T09:26:18;94327.19;;;14.62;29.06
21826;BME280;11075;47.944;11.776;2023-04-21T09:28:46;94305.31;;;12.56;30.75
21826;BME280;11075;47.944;11.776;2023-04-21T09:31:15;94287.84;;;11.19;31.09
21826;BME280;11075;47.944;11.776;2023-04-21T09:33:46;94301.22;;;12.43;30.60
21826;BME280;11075;47.944;11.776;2023-04-21T09:36:26;94318.16;;;13.31;28.97
21826;BME280;11075;47.944;11.776;2023-04-21T09:38:57;94295.88;;;13.68;30.00
21826;BME280;11075;47.944;11.776;2023-04-21T09:41:44;94321.06;;;15.61;27.57
21826;BME280;11075;47.944;11.776;2023-04-21T09:44:11;94415.25;;;18.41;22.98
21826;BME280;11075;47.944;11.776;2023-04-21T09:46:41;94351.50;;;16.89;25.24
21826;BME280;11075;47.944;11.776;2023-04-21T09:49:10;94365.78;;;15.78;25.27
21826;BME280;11075;47.944;11.776;2023-04-21T09:51:39;94366.50;;;16.44;24.55
21826;BME280;11075;47.944;11.776;2023-04-21T09:54:15;94403.59;;;18.16;22.28
21826;BME280;11075;47.944;11.776;2023-04-21T09:56:48;94337.72;;;15.56;25.97
21826;BME280;11075;47.944;11.776;2023-04-21T09:59:19;94386.50;;;18.08;23.40
21826;BME280;11075;47.944;11.776;2023-04-21T10:01:50;94366.59;;;19.09;23.53
21826;BME280;11075;47.944;11.776;2023-04-21T10:04:21;94367.78;;;16.71;24.48
21826;BME280;11075;47.944;11.776;2023-04-21T10:06:50;94353.09;;;17.19;23.99
21826;BME280;11075;47.944;11.776;2023-04-21T10:09:20;94369.16;;;19.82;21.80
21826;BME280;11075;47.944;11.776;2023-04-21T10:11:48;94355.66;;;18.39;23.54
21826;BME280;11075;47.944;11.776;2023-04-21T10:14:15;94345.66;;;17.87;23.43
21826;BME280;11075;47.944;11.776;2023-04-21T10:16:42;94338.00;;;19.24;23.69
21826;BME280;11075;47.944;11.776;2023-04-21T10:19:23;94343.44;;;19.72;23.06
21826;BME280;11075;47.944;11.776;2023-04-21T10:21:56;94327.06;;;17.14;24.50
21826;BME280;11075;47.944;11.776;2023-04-21T10:24:27;94289.88;;;16.06;25.58
21826;BME280;11075;47.944;11.776;2023-04-21T10:26:56;94241.94;;;15.01;28.18
21826;BME280;11075;47.944;11.776;2023-04-21T10:29:28;94287.78;;;17.26;25.15
21826;BME280;11075;47.944;11.776;2023-04-21T10:32:10;94247.59;;;14.41;28.15
21826;BME280;11075;47.944;11.776;2023-04-21T10:34:37;94261.72;;;16.64;26.16
21826;BME280;11075;47.944;11.776;2023-04-21T10:39:43;94225.44;;;13.34;29.62
21826;BME280;11075;47.944;11.776;2023-04-21T10:42:28;94233.16;;;13.92;28.70
21826;BME280;11075;47.944;11.776;2023-04-21T10:47:27;94173.28;;;11.67;32.67
21826;BME280;11075;47.944;11.776;2023-04-21T10:49:58;94243.97;;;15.80;27.54
21826;BME280;11075;47.944;11.776;2023-04-21T10:52:31;94336.69;;;20.56;22.75
21826;BME280;11075;47.944;11.776;2023-04-21T10:57:31;94296.47;;;20.53;23.74
21826;BME280;11075;47.944;11.776;2023-04-21T10:59:58;94288.69;;;18.28;24.35
21826;BME280;11075;47.944;11.776;2023-04-21T11:02:25;94300.13;;;18.74;23.77
21826;BME280;11075;47.944;11.776;2023-04-21T11:04:53;94233.72;;;15.48;26.93
21826;BME280;11075;47.944;11.776;2023-04-21T11:07:24;94233.13;;;15.90;26.89
21826;BME280;11075;47.944;11.776;2023-04-21T11:10:06;94280.91;;;18.96;23.46
21826;BME280;11075;47.944;11.776;2023-04-21T11:12:36;94281.59;;;20.54;22.96
21826;BME280;11075;47.944;11.776;2023-04-21T11:15:09;94243.53;;;15.67;26.16
21826;BME280;11075;47.944;11.776;2023-04-21T11:17:37;94253.28;;;18.21;24.14
21826;BME280;11075;47.944;11.776;2023-04-21T11:20:06;94228.31;;;16.74;26.20
21826;BME280;11075;47.944;11.776;2023-04-21T11:22:35;94307.56;;;22.52;20.93
21826;BME280;11075;47.944;11.776;2023-04-21T11:25:02;94272.38;;;19.76;23.26
21826;BME280;11075;47.944;11.776;2023-04-21T11:27:30;94292.81;;;21.64;21.50
21826;BME280;11075;47.944;11.776;2023-04-21T11:29:57;94268.38;;;19.88;22.89
21826;BME280;11075;47.944;11.776;2023-04-21T11:32:24;94289.91;;;21.51;21.91
21826;BME280;11075;47.944;11.776;2023-04-21T11:34:51;94282.28;;;22.61;21.60
21826;BME280;11075;47.944;11.776;2023-04-21T11:37:23;94263.78;;;20.42;22.37
21826;BME280;11075;47.944;11.776;2023-04-21T11:39:57;94231.97;;;18.67;25.12
21826;BME280;11075;47.944;11.776;2023-04-21T11:42:24;94214.78;;;18.08;26.25
21826;BME280;11075;47.944;11.776;2023-04-21T11:44:53;94227.19;;;18.20;25.67
21826;BME280;11075;47.944;11.776;2023-04-21T11:47:21;94232.13;;;19.43;24.37
21826;BME280;11075;47.944;11.776;2023-04-21T11:49:53;94263.81;;;21.19;22.25
21826;BME280;11075;47.944;11.776;2023-04-21T11:52:22;94250.25;;;21.36;23.66
21826;BME280;11075;47.944;11.776;2023-04-21T11:55:00;94238.50;;;20.88;24.18
21826;BME280;11075;47.944;11.776;2023-04-21T11:57:29;94292.75;;;21.67;21.44
21826;BME280;11075;47.944;11.776;2023-04-21T12:00:00;94248.84;;;18.48;24.17
21826;BME280;11075;47.944;11.776;2023-04-21T12:02:31;94276.06;;;21.58;21.57
21826;BME280;11075;47.944;11.776;2023-04-21T12:05:00;94290.56;;;22.41;21.24
21826;BME280;11075;47.944;11.776;2023-04-21T12:07:30;94251.78;;;19.27;23.67
21826;BME280;11075;47.944;11.776;2023-04-21T12:09:58;94228.84;;;19.17;24.82
21826;BME280;11075;47.944;11.776;2023-04-21T12:12:25;94256.47;;;19.67;23.03
21826;BME280;11075;47.944;11.776;2023-04-21T12:14:53;94275.66;;;22.03;22.22
21826;BME280;11075;47.944;11.776;2023-04-21T12:17:20;94238.81;;;20.40;23.73
21826;BME280;11075;47.944;11.776;2023-04-21T12:19:47;94260.28;;;20.95;22.13
21826;BME280;11075;47.944;11.776;2023-04-21T12:22:16;94233.34;;;17.19;24.41
21826;BME280;11075;47.944;11.776;2023-04-21T12:24:49;94254.38;;;19.79;23.52
21826;BME280;11075;47.944;11.776;2023-04-21T12:27:15;94264.03;;;19.08;22.58
21826;BME280;11075;47.944;11.776;2023-04-21T12:29:44;94240.66;;;19.03;23.96
21826;BME280;11075;47.944;11.776;2023-04-21T12:32:11;94260.69;;;19.72;23.24
21826;BME280;11075;47.944;11.776;2023-04-21T12:34:38;94225.00;;;18.59;24.85
21826;BME280;11075;47.944;11.776;2023-04-21T12:37:05;94229.81;;;17.32;24.62
21826;BME280;11075;47.944;11.776;2023-04-21T12:39:32;94209.03;;;15.06;26.99
21826;BME280;11075;47.944;11.776;2023-04-21T12:41:59;94223.72;;;19.23;23.64
21826;BME280;11075;47.944;11.776;2023-04-21T12:44:27;94233.28;;;19.83;23.45
21826;BME280;11075;47.944;11.776;2023-04-21T12:46:54;94186.34;;;16.68;26.52
21826;BME280;11075;47.944;11.776;2023-04-21T12:49:24;94209.06;;;17.81;24.41
21826;BME280;11075;47.944;11.776;2023-04-21T12:51:51;94229.84;;;19.37;23.17
21826;BME280;11075;47.944;11.776;2023-04-21T12:54:18;94206.94;;;16.80;25.71
21826;BME280;11075;47.944;11.776;2023-04-21T12:56:45;94189.75;;;17.43;25.61
21826;BME280;11075;47.944;11.776;2023-04-21T12:59:12;94195.97;;;17.40;25.38
21826;BME280;11075;47.944;11.776;2023-04-21T13:01:40;94176.22;;;16.44;26.19
21826;BME280;11075;47.944;11.776;2023-04-21T13:04:08;94176.00;;;15.58;26.44
21826;BME280;11075;47.944;11.776;2023-04-21T13:06:37;94206.38;;;18.51;23.57
21826;BME280;11075;47.944;11.776;2023-04-21T13:09:04;94181.69;;;16.58;25.95
21826;BME280;11075;47.944;11.776;2023-04-21T13:11:32;94176.09;;;15.87;26.87